sensor_id;sensor_type;location;lat;lon;timestamp;P1;durP1;ratioP1;P2;durP2;ratioP2
15645;SDS011;7922;43.622;1.476;2022-10-04T00:00:11;5.80;;;4.63;;
15645;SDS011;7922;43.622;1.476;2022-10-04T00:02:49;5.20;;;4.50;;
15645;SDS011;7922;43.622;1.476;2022-10-04T00:05:16;7.87;;;4.90;;
15645;SDS011;7922;43.622;1.476;2022-10-04T00:07:43;6.17;;;5.10;;
15645;SDS011;7922;43.622;1.476;2022-10-04T00:10:16;8.33;;;4.70;;
15645;SDS011;7922;43.622;1.476;2022-10-04T00:12:49;5.40;;;4.90;;
15645;SDS011;7922;43.622;1.476;2022-10-04T00:15:27;5.00;;;4.20;;
15645;SDS011;7922;43.622;1.476;2022-10-04T00:28:46;5.83;;;5.10;;
15645;SDS011;7922;43.622;1.476;2022-10-04T00:31:21;8.90;;;4.90;;
15645;SDS011;7922;43.622;1.476;2022-10-04T00:36:43;6.20;;;5.07;;
15645;SDS011;7922;43.622;1.476;2022-10-04T00:39:12;7.00;;;4.67;;
15645;SDS011;7922;43.622;1.476;2022-10-04T00:44:16;7.13;;;4.73;;
15645;SDS011;7922;43.622;1.476;2022-10-04T00:46:45;5.30;;;4.40;;
15645;SDS011;7922;43.622;1.476;2022-10-04T00:49:12;5.17;;;4.67;;
15645;SDS011;7922;43.622;1.476;2022-10-04T00:51:42;7.50;;;4.70;;
15645;SDS011;7922;43.622;1.476;2022-10-04T00:54:11;5.63;;;4.67;;
15645;SDS011;7922;43.622;1.476;2022-10-04T00:56:46;6.20;;;4.90;;
15645;SDS011;7922;43.622;1.476;2022-10-04T01:01:40;5.20;;;4.33;;
15645;SDS011;7922;43.622;1.476;2022-10-04T01:04:12;7.30;;;4.70;;
15645;SDS011;7922;43.622;1.476;2022-10-04T01:06:51;5.20;;;4.70;;
15645;SDS011;7922;43.622;1.476;2022-10-04T01:09:17;5.80;;;4.47;;
15645;SDS011;7922;43.622;1.476;2022-10-04T01:11:46;5.60;;;4.17;;
15645;SDS011;7922;43.622;1.476;2022-10-04T01:14:28;7.57;;;4.20;;
15645;SDS011;7922;43.622;1.476;2022-10-04T01:16:56;5.93;;;3.93;;
15645;SDS011;7922;43.622;1.476;2022-10-04T01:21:58;5.77;;;4.33;;
15645;SDS011;7922;43.622;1.476;2022-10-04T01:24:23;7.87;;;4.00;;
15645;SDS011;7922;43.622;1.476;2022-10-04T01:26:49;6.13;;;4.67;;
15645;SDS011;7922;43.622;1.476;2022-10-04T01:29:22;4.30;;;3.90;;
15645;SDS011;7922;43.622;1.476;2022-10-04T01:31:50;5.47;;;4.20;;
15645;SDS011;7922;43.622;1.476;2022-10-04T01:34:18;4.93;;;4.43;;
15645;SDS011;7922;43.622;1.476;2022-10-04T01:36:48;4.60;;;4.17;;
15645;SDS011;7922;43.622;1.476;2022-10-04T01:39:15;4.60;;;4.10;;
15645;SDS011;7922;43.622;1.476;2022-10-04T01:44:11;4.87;;;4.47;;
15645;SDS011;7922;43.622;1.476;2022-10-04T01:46:44;6.10;;;4.10;;
15645;SDS011;7922;43.622;1.476;2022-10-04T01:49:11;4.87;;;3.67;;
15645;SDS011;7922;43.622;1.476;2022-10-04T01:51:45;7.27;;;4.13;;
15645;SDS011;7922;43.622;1.476;2022-10-04T01:54:31;4.33;;;3.93;;
15645;SDS011;7922;43.622;1.476;2022-10-04T01:56:59;5.33;;;4.10;;
15645;SDS011;7922;43.622;1.476;2022-10-04T01:59:30;7.30;;;4.00;;
15645;SDS011;7922;43.622;1.476;2022-10-04T02:05:02;3.77;;;3.47;;
15645;SDS011;7922;43.622;1.476;2022-10-04T02:07:30;5.53;;;4.07;;
15645;SDS011;7922;43.622;1.476;2022-10-04T02:09:58;5.90;;;3.90;;
15645;SDS011;7922;43.622;1.476;2022-10-04T02:12:26;4.60;;;3.87;;
15645;SDS011;7922;43.622;1.476;2022-10-04T02:14:52;4.40;;;4.00;;
15645;SDS011;7922;43.622;1.476;2022-10-04T02:17:20;4.87;;;3.70;;
15645;SDS011;7922;43.622;1.476;2022-10-04T02:19:48;6.37;;;3.80;;
15645;SDS011;7922;43.622;1.476;2022-10-04T02:22:14;5.27;;;4.07;;
15645;SDS011;7922;43.622;1.476;2022-10-04T02:24:41;8.87;;;4.43;;
15645;SDS011;7922;43.622;1.476;2022-10-04T02:27:08;8.87;;;4.27;;
15645;SDS011;7922;43.622;1.476;2022-10-04T02:29:33;5.10;;;4.43;;
15645;SDS011;7922;43.622;1.476;2022-10-04T02:31:59;4.70;;;3.70;;
15645;SDS011;7922;43.622;1.476;2022-10-04T02:34:43;5.53;;;4.00;;
15645;SDS011;7922;43.622;1.476;2022-10-04T02:37:10;5.60;;;4.03;;
15645;SDS011;7922;43.622;1.476;2022-10-04T02:40:11;5.77;;;4.47;;
15645;SDS011;7922;43.622;1.476;2022-10-04T02:42:53;7.30;;;4.07;;
15645;SDS011;7922;43.622;1.476;2022-10-04T02:45:28;3.77;;;3.27;;
15645;SDS011;7922;43.622;1.476;2022-10-04T02:48:03;4.37;;;3.60;;
15645;SDS011;7922;43.622;1.476;2022-10-04T02:50:45;4.13;;;3.73;;
15645;SDS011;7922;43.622;1.476;2022-10-04T02:55:41;6.70;;;3.63;;
15645;SDS011;7922;43.622;1.476;2022-10-04T02:58:08;5.77;;;4.27;;
15645;SDS011;7922;43.622;1.476;2022-10-04T03:00:34;4.10;;;3.70;;
15645;SDS011;7922;43.622;1.476;2022-10-04T03:08:27;3.97;;;3.57;;
15645;SDS011;7922;43.622;1.476;2022-10-04T03:10:54;4.60;;;3.70;;
15645;SDS011;7922;43.622;1.476;2022-10-04T03:13:21;3.90;;;3.60;;
15645;SDS011;7922;43.622;1.476;2022-10-04T03:15:46;4.27;;;3.70;;
15645;SDS011;7922;43.622;1.476;2022-10-04T03:18:14;4.93;;;3.93;;
15645;SDS011;7922;43.622;1.476;2022-10-04T03:20:39;6.13;;;4.00;;
15645;SDS011;7922;43.622;1.476;2022-10-04T03:23:05;4.20;;;3.90;;
15645;SDS011;7922;43.622;1.476;2022-10-04T03:25:37;4.90;;;3.53;;
15645;SDS011;7922;43.622;1.476;2022-10-04T03:28:25;5.63;;;4.10;;
15645;SDS011;7922;43.622;1.476;2022-10-04T03:30:51;5.53;;;3.83;;
15645;SDS011;7922;43.622;1.476;2022-10-04T03:33:23;4.90;;;3.83;;
15645;SDS011;7922;43.622;1.476;2022-10-04T03:35:51;4.10;;;3.33;;
15645;SDS011;7922;43.622;1.476;2022-10-04T03:38:19;6.83;;;4.20;;
15645;SDS011;7922;43.622;1.476;2022-10-04T03:40:48;4.37;;;3.97;;
15645;SDS011;7922;43.622;1.476;2022-10-04T03:43:17;5.10;;;3.83;;
15645;SDS011;7922;43.622;1.476;2022-10-04T03:45:42;4.33;;;3.73;;
15645;SDS011;7922;43.622;1.476;2022-10-04T03:48:10;6.00;;;4.60;;
15645;SDS011;7922;43.622;1.476;2022-10-04T03:50:38;4.70;;;4.20;;
15645;SDS011;7922;43.622;1.476;2022-10-04T03:53:32;4.60;;;3.83;;
15645;SDS011;7922;43.622;1.476;2022-10-04T03:56:01;4.80;;;3.90;;
15645;SDS011;7922;43.622;1.476;2022-10-04T03:58:32;4.50;;;3.37;;
15645;SDS011;7922;43.622;1.476;2022-10-04T04:03:23;6.97;;;3.93;;
15645;SDS011;7922;43.622;1.476;2022-10-04T04:05:56;5.93;;;3.93;;
15645;SDS011;7922;43.622;1.476;2022-10-04T04:08:27;3.90;;;3.50;;
15645;SDS011;7922;43.622;1.476;2022-10-04T04:10:54;6.20;;;4.23;;
15645;SDS011;7922;43.622;1.476;2022-10-04T04:13:26;6.17;;;3.93;;
15645;SDS011;7922;43.622;1.476;2022-10-04T04:15:55;5.13;;;4.60;;
15645;SDS011;7922;43.622;1.476;2022-10-04T04:18:26;7.30;;;4.07;;
15645;SDS011;7922;43.622;1.476;2022-10-04T04:20:55;4.37;;;3.97;;
15645;SDS011;7922;43.622;1.476;2022-10-04T04:23:27;5.33;;;4.30;;
15645;SDS011;7922;43.622;1.476;2022-10-04T04:25:57;4.60;;;4.20;;
15645;SDS011;7922;43.622;1.476;2022-10-04T04:28:45;5.07;;;3.97;;
15645;SDS011;7922;43.622;1.476;2022-10-04T04:31:26;7.07;;;4.07;;
15645;SDS011;7922;43.622;1.476;2022-10-04T04:33:56;4.97;;;4.03;;
15645;SDS011;7922;43.622;1.476;2022-10-04T04:36:25;6.93;;;4.50;;
15645;SDS011;7922;43.622;1.476;2022-10-04T04:38:51;4.70;;;4.10;;
15645;SDS011;7922;43.622;1.476;2022-10-04T04:41:40;4.93;;;4.23;;
15645;SDS011;7922;43.622;1.476;2022-10-04T04:44:12;5.07;;;4.10;;
15645;SDS011;7922;43.622;1.476;2022-10-04T04:46:41;6.60;;;4.10;;
15645;SDS011;7922;43.622;1.476;2022-10-04T04:49:08;4.57;;;4.03;;
15645;SDS011;7922;43.622;1.476;2022-10-04T04:51:34;6.43;;;4.83;;
15645;SDS011;7922;43.622;1.476;2022-10-04T04:54:01;5.20;;;4.10;;
15645;SDS011;7922;43.622;1.476;2022-10-04T04:56:27;4.53;;;4.13;;
15645;SDS011;7922;43.622;1.476;2022-10-04T04:58:54;7.93;;;4.13;;
15645;SDS011;7922;43.622;1.476;2022-10-04T05:01:24;4.60;;;4.20;;
15645;SDS011;7922;43.622;1.476;2022-10-04T05:06:37;5.30;;;4.80;;
15645;SDS011;7922;43.622;1.476;2022-10-04T05:09:22;4.67;;;3.97;;
15645;SDS011;7922;43.622;1.476;2022-10-04T05:11:48;4.43;;;4.00;;
15645;SDS011;7922;43.622;1.476;2022-10-04T05:14:15;4.30;;;3.90;;
15645;SDS011;7922;43.622;1.476;2022-10-04T05:16:51;4.93;;;4.23;;
15645;SDS011;7922;43.622;1.476;2022-10-04T05:21:44;5.77;;;4.27;;
15645;SDS011;7922;43.622;1.476;2022-10-04T05:24:13;5.57;;;4.43;;
15645;SDS011;7922;43.622;1.476;2022-10-04T05:26:53;6.57;;;4.57;;
15645;SDS011;7922;43.622;1.476;2022-10-04T05:29:22;4.20;;;3.90;;
15645;SDS011;7922;43.622;1.476;2022-10-04T05:34:23;6.13;;;4.50;;
15645;SDS011;7922;43.622;1.476;2022-10-04T05:42:24;5.73;;;4.20;;
15645;SDS011;7922;43.622;1.476;2022-10-04T05:44:57;5.37;;;4.10;;
15645;SDS011;7922;43.622;1.476;2022-10-04T05:47:24;5.20;;;4.23;;
15645;SDS011;7922;43.622;1.476;2022-10-04T05:49:52;5.43;;;4.87;;
15645;SDS011;7922;43.622;1.476;2022-10-04T05:52:37;5.13;;;4.17;;
15645;SDS011;7922;43.622;1.476;2022-10-04T05:55:11;7.50;;;4.57;;
15645;SDS011;7922;43.622;1.476;2022-10-04T06:00:26;5.43;;;4.80;;
15645;SDS011;7922;43.622;1.476;2022-10-04T06:03:30;5.67;;;4.77;;
15645;SDS011;7922;43.622;1.476;2022-10-04T06:06:01;6.10;;;4.47;;
15645;SDS011;7922;43.622;1.476;2022-10-04T06:08:48;6.37;;;4.90;;
15645;SDS011;7922;43.622;1.476;2022-10-04T06:11:32;8.07;;;4.80;;
15645;SDS011;7922;43.622;1.476;2022-10-04T06:19:42;9.40;;;5.43;;
15645;SDS011;7922;43.622;1.476;2022-10-04T06:24:43;5.67;;;4.97;;
15645;SDS011;7922;43.622;1.476;2022-10-04T06:30:14;9.80;;;5.60;;
15645;SDS011;7922;43.622;1.476;2022-10-04T06:46:00;6.10;;;5.50;;
15645;SDS011;7922;43.622;1.476;2022-10-04T06:59:19;6.63;;;5.73;;
15645;SDS011;7922;43.622;1.476;2022-10-04T07:01:58;9.03;;;6.07;;
15645;SDS011;7922;43.622;1.476;2022-10-04T07:04:38;6.73;;;5.90;;
15645;SDS011;7922;43.622;1.476;2022-10-04T07:12:47;7.77;;;6.97;;
15645;SDS011;7922;43.622;1.476;2022-10-04T07:15:25;10.40;;;6.77;;
15645;SDS011;7922;43.622;1.476;2022-10-04T07:17:52;8.53;;;6.00;;
15645;SDS011;7922;43.622;1.476;2022-10-04T07:20:21;8.80;;;6.10;;
15645;SDS011;7922;43.622;1.476;2022-10-04T07:22:54;9.10;;;6.10;;
15645;SDS011;7922;43.622;1.476;2022-10-04T07:25:36;7.53;;;6.03;;
15645;SDS011;7922;43.622;1.476;2022-10-04T07:33:53;7.53;;;6.10;;
15645;SDS011;7922;43.622;1.476;2022-10-04T07:36:27;6.77;;;5.93;;
15645;SDS011;7922;43.622;1.476;2022-10-04T07:38:57;8.40;;;6.40;;
15645;SDS011;7922;43.622;1.476;2022-10-04T07:41:31;8.10;;;5.87;;
15645;SDS011;7922;43.622;1.476;2022-10-04T07:49:45;6.80;;;6.10;;
15645;SDS011;7922;43.622;1.476;2022-10-04T08:06:05;6.03;;;5.43;;
15645;SDS011;7922;43.622;1.476;2022-10-04T08:19:23;8.37;;;5.33;;
15645;SDS011;7922;43.622;1.476;2022-10-04T08:25:17;8.17;;;5.80;;
15645;SDS011;7922;43.622;1.476;2022-10-04T08:36:17;10.90;;;5.87;;
15645;SDS011;7922;43.622;1.476;2022-10-04T08:39:04;6.47;;;5.30;;
15645;SDS011;7922;43.622;1.476;2022-10-04T08:55:59;6.37;;;4.90;;
15645;SDS011;7922;43.622;1.476;2022-10-04T09:10:05;8.30;;;5.00;;
15645;SDS011;7922;43.622;1.476;2022-10-04T09:12:48;8.43;;;4.47;;
15645;SDS011;7922;43.622;1.476;2022-10-04T09:26:12;4.63;;;4.17;;
15645;SDS011;7922;43.622;1.476;2022-10-04T09:52:24;6.13;;;3.40;;
15645;SDS011;7922;43.622;1.476;2022-10-04T09:55:00;4.53;;;3.03;;
15645;SDS011;7922;43.622;1.476;2022-10-04T09:57:42;4.03;;;3.03;;
15645;SDS011;7922;43.622;1.476;2022-10-04T10:05:13;6.60;;;3.20;;
15645;SDS011;7922;43.622;1.476;2022-10-04T10:38:59;4.83;;;2.13;;
15645;SDS011;7922;43.622;1.476;2022-10-04T10:56:22;5.73;;;1.70;;
15645;SDS011;7922;43.622;1.476;2022-10-04T11:49:43;2.87;;;2.00;;
15645;SDS011;7922;43.622;1.476;2022-10-04T12:00:26;3.83;;;1.97;;
15645;SDS011;7922;43.622;1.476;2022-10-04T12:15:02;2.97;;;2.00;;
15645;SDS011;7922;43.622;1.476;2022-10-04T12:26:03;4.93;;;1.80;;
15645;SDS011;7922;43.622;1.476;2022-10-04T12:33:59;4.53;;;1.53;;
15645;SDS011;7922;43.622;1.476;2022-10-04T12:36:35;6.07;;;1.87;;
15645;SDS011;7922;43.622;1.476;2022-10-04T12:39:13;2.23;;;1.73;;
15645;SDS011;7922;43.622;1.476;2022-10-04T12:41:55;2.20;;;1.70;;
15645;SDS011;7922;43.622;1.476;2022-10-04T12:44:30;4.40;;;1.77;;
15645;SDS011;7922;43.622;1.476;2022-10-04T12:49:42;2.33;;;1.80;;
15645;SDS011;7922;43.622;1.476;2022-10-04T12:52:20;2.20;;;1.50;;
15645;SDS011;7922;43.622;1.476;2022-10-04T13:10:53;2.17;;;1.60;;
15645;SDS011;7922;43.622;1.476;2022-10-04T13:13:31;2.10;;;1.40;;
15645;SDS011;7922;43.622;1.476;2022-10-04T13:24:50;3.07;;;2.20;;
15645;SDS011;7922;43.622;1.476;2022-10-04T13:27:51;5.10;;;1.93;;
15645;SDS011;7922;43.622;1.476;2022-10-04T13:30:25;3.03;;;1.80;;
15645;SDS011;7922;43.622;1.476;2022-10-04T13:41:35;2.73;;;1.57;;
15645;SDS011;7922;43.622;1.476;2022-10-04T14:48:14;2.93;;;2.00;;
15645;SDS011;7922;43.622;1.476;2022-10-04T14:51:22;2.80;;;2.03;;
15645;SDS011;7922;43.622;1.476;2022-10-04T14:53:55;4.33;;;1.93;;
15645;SDS011;7922;43.622;1.476;2022-10-04T15:01:33;1.97;;;1.70;;
15645;SDS011;7922;43.622;1.476;2022-10-04T15:04:08;4.70;;;1.83;;
15645;SDS011;7922;43.622;1.476;2022-10-04T15:06:49;1.83;;;1.33;;
15645;SDS011;7922;43.622;1.476;2022-10-04T15:17:42;4.30;;;1.83;;
15645;SDS011;7922;43.622;1.476;2022-10-04T15:22:54;1.83;;;1.50;;
15645;SDS011;7922;43.622;1.476;2022-10-04T15:25:51;3.17;;;1.50;;
15645;SDS011;7922;43.622;1.476;2022-10-04T15:34:04;3.37;;;1.70;;
15645;SDS011;7922;43.622;1.476;2022-10-04T15:44:32;3.50;;;1.97;;
15645;SDS011;7922;43.622;1.476;2022-10-04T15:49:50;3.60;;;2.00;;
15645;SDS011;7922;43.622;1.476;2022-10-04T15:52:39;3.53;;;1.60;;
15645;SDS011;7922;43.622;1.476;2022-10-04T16:24:45;2.07;;;1.80;;
15645;SDS011;7922;43.622;1.476;2022-10-04T16:51:03;3.40;;;2.07;;
15645;SDS011;7922;43.622;1.476;2022-10-04T16:56:31;3.73;;;1.83;;
15645;SDS011;7922;43.622;1.476;2022-10-04T17:07:12;13.07;;;7.70;;
15645;SDS011;7922;43.622;1.476;2022-10-04T17:15:39;6.77;;;3.70;;
15645;SDS011;7922;43.622;1.476;2022-10-04T17:18:18;3.97;;;2.50;;
15645;SDS011;7922;43.622;1.476;2022-10-04T17:20:53;4.87;;;2.80;;
15645;SDS011;7922;43.622;1.476;2022-10-04T17:31:56;2.70;;;1.90;;
15645;SDS011;7922;43.622;1.476;2022-10-04T17:37:24;2.23;;;2.00;;
15645;SDS011;7922;43.622;1.476;2022-10-04T17:47:58;5.00;;;3.10;;
15645;SDS011;7922;43.622;1.476;2022-10-04T17:51:02;3.27;;;2.40;;
15645;SDS011;7922;43.622;1.476;2022-10-04T17:53:51;3.87;;;3.13;;
15645;SDS011;7922;43.622;1.476;2022-10-04T17:59:27;7.87;;;3.80;;
15645;SDS011;7922;43.622;1.476;2022-10-04T18:02:02;6.17;;;3.43;;
15645;SDS011;7922;43.622;1.476;2022-10-04T18:04:35;5.10;;;3.33;;
15645;SDS011;7922;43.622;1.476;2022-10-04T18:07:13;4.57;;;3.20;;
15645;SDS011;7922;43.622;1.476;2022-10-04T18:09:46;3.73;;;3.17;;
15645;SDS011;7922;43.622;1.476;2022-10-04T18:15:24;4.83;;;2.60;;
15645;SDS011;7922;43.622;1.476;2022-10-04T18:18:04;3.37;;;2.20;;
15645;SDS011;7922;43.622;1.476;2022-10-04T18:23:30;5.00;;;3.80;;
15645;SDS011;7922;43.622;1.476;2022-10-04T18:28:27;4.00;;;3.03;;
15645;SDS011;7922;43.622;1.476;2022-10-04T18:30:56;4.43;;;3.13;;
15645;SDS011;7922;43.622;1.476;2022-10-04T18:33:46;3.43;;;3.13;;
15645;SDS011;7922;43.622;1.476;2022-10-04T18:36:22;5.90;;;3.30;;
15645;SDS011;7922;43.622;1.476;2022-10-04T18:41:35;6.63;;;3.87;;
15645;SDS011;7922;43.622;1.476;2022-10-04T18:44:19;5.70;;;3.57;;
15645;SDS011;7922;43.622;1.476;2022-10-04T18:46:46;4.20;;;3.10;;
15645;SDS011;7922;43.622;1.476;2022-10-04T18:49:19;4.70;;;3.73;;
15645;SDS011;7922;43.622;1.476;2022-10-04T19:11:36;10.03;;;6.13;;
15645;SDS011;7922;43.622;1.476;2022-10-04T19:16:58;10.67;;;6.40;;
15645;SDS011;7922;43.622;1.476;2022-10-04T19:27:26;8.93;;;5.43;;
15645;SDS011;7922;43.622;1.476;2022-10-04T19:32:43;10.93;;;6.50;;
15645;SDS011;7922;43.622;1.476;2022-10-04T19:41:26;7.67;;;5.57;;
15645;SDS011;7922;43.622;1.476;2022-10-04T19:46:57;8.30;;;5.27;;
15645;SDS011;7922;43.622;1.476;2022-10-04T19:52:40;9.77;;;4.60;;
15645;SDS011;7922;43.622;1.476;2022-10-04T19:55:20;7.30;;;4.70;;
15645;SDS011;7922;43.622;1.476;2022-10-04T20:00:41;7.07;;;4.80;;
15645;SDS011;7922;43.622;1.476;2022-10-04T20:03:10;7.00;;;4.87;;
15645;SDS011;7922;43.622;1.476;2022-10-04T20:05:41;6.67;;;4.70;;
15645;SDS011;7922;43.622;1.476;2022-10-04T20:08:11;6.03;;;4.37;;
15645;SDS011;7922;43.622;1.476;2022-10-04T20:10:38;5.83;;;3.80;;
15645;SDS011;7922;43.622;1.476;2022-10-04T20:13:04;7.83;;;4.73;;
15645;SDS011;7922;43.622;1.476;2022-10-04T20:15:41;6.23;;;4.23;;
15645;SDS011;7922;43.622;1.476;2022-10-04T20:26:02;6.60;;;3.43;;
15645;SDS011;7922;43.622;1.476;2022-10-04T20:31:06;5.63;;;3.17;;
15645;SDS011;7922;43.622;1.476;2022-10-04T20:47:14;5.57;;;3.00;;
15645;SDS011;7922;43.622;1.476;2022-10-04T20:50:04;5.43;;;3.13;;
15645;SDS011;7922;43.622;1.476;2022-10-04T20:52:42;4.33;;;3.17;;
15645;SDS011;7922;43.622;1.476;2022-10-04T20:55:20;4.77;;;3.60;;
15645;SDS011;7922;43.622;1.476;2022-10-04T20:57:52;3.83;;;3.40;;
15645;SDS011;7922;43.622;1.476;2022-10-04T21:00:21;5.87;;;3.77;;
15645;SDS011;7922;43.622;1.476;2022-10-04T21:02:49;6.00;;;3.27;;
15645;SDS011;7922;43.622;1.476;2022-10-04T21:05:30;5.53;;;3.30;;
15645;SDS011;7922;43.622;1.476;2022-10-04T21:11:04;5.77;;;3.43;;
15645;SDS011;7922;43.622;1.476;2022-10-04T21:13:46;3.20;;;2.90;;
15645;SDS011;7922;43.622;1.476;2022-10-04T21:16:31;4.03;;;3.03;;
15645;SDS011;7922;43.622;1.476;2022-10-04T21:19:26;4.53;;;3.37;;
15645;SDS011;7922;43.622;1.476;2022-10-04T21:21:58;4.13;;;3.10;;
15645;SDS011;7922;43.622;1.476;2022-10-04T21:24:25;6.70;;;3.10;;
15645;SDS011;7922;43.622;1.476;2022-10-04T21:27:03;3.73;;;2.80;;
15645;SDS011;7922;43.622;1.476;2022-10-04T21:29:30;4.17;;;3.00;;
15645;SDS011;7922;43.622;1.476;2022-10-04T21:31:56;6.27;;;3.00;;
15645;SDS011;7922;43.622;1.476;2022-10-04T21:34:22;5.07;;;2.97;;
15645;SDS011;7922;43.622;1.476;2022-10-04T21:36:47;5.83;;;3.10;;
15645;SDS011;7922;43.622;1.476;2022-10-04T21:39:13;4.13;;;2.90;;
15645;SDS011;7922;43.622;1.476;2022-10-04T21:41:38;4.13;;;2.87;;
15645;SDS011;7922;43.622;1.476;2022-10-04T21:44:04;5.77;;;3.30;;
15645;SDS011;7922;43.622;1.476;2022-10-04T21:46:29;4.23;;;2.57;;
15645;SDS011;7922;43.622;1.476;2022-10-04T21:48:54;5.27;;;2.97;;
15645;SDS011;7922;43.622;1.476;2022-10-04T21:51:20;3.27;;;2.63;;
15645;SDS011;7922;43.622;1.476;2022-10-04T21:53:45;5.23;;;2.33;;
15645;SDS011;7922;43.622;1.476;2022-10-04T21:56:11;2.93;;;2.70;;
15645;SDS011;7922;43.622;1.476;2022-10-04T21:58:36;6.30;;;2.70;;
15645;SDS011;7922;43.622;1.476;2022-10-04T22:01:01;4.57;;;2.73;;
15645;SDS011;7922;43.622;1.476;2022-10-04T22:03:27;6.50;;;2.63;;
15645;SDS011;7922;43.622;1.476;2022-10-04T22:05:52;3.97;;;2.73;;
15645;SDS011;7922;43.622;1.476;2022-10-04T22:08:17;5.83;;;2.67;;
15645;SDS011;7922;43.622;1.476;2022-10-04T22:10:43;2.93;;;2.67;;
15645;SDS011;7922;43.622;1.476;2022-10-04T22:13:09;3.93;;;2.60;;
15645;SDS011;7922;43.622;1.476;2022-10-04T22:15:35;3.83;;;2.43;;
15645;SDS011;7922;43.622;1.476;2022-10-04T22:18:00;3.10;;;2.80;;
15645;SDS011;7922;43.622;1.476;2022-10-04T22:20:25;3.47;;;2.63;;
15645;SDS011;7922;43.622;1.476;2022-10-04T22:22:52;2.57;;;2.37;;
15645;SDS011;7922;43.622;1.476;2022-10-04T22:25:20;4.40;;;2.50;;
15645;SDS011;7922;43.622;1.476;2022-10-04T22:27:48;3.53;;;2.47;;
15645;SDS011;7922;43.622;1.476;2022-10-04T22:30:18;3.23;;;2.10;;
15645;SDS011;7922;43.622;1.476;2022-10-04T22:32:57;3.23;;;2.50;;
15645;SDS011;7922;43.622;1.476;2022-10-04T22:35:23;4.13;;;2.40;;
15645;SDS011;7922;43.622;1.476;2022-10-04T22:37:48;3.93;;;2.47;;
15645;SDS011;7922;43.622;1.476;2022-10-04T22:42:43;2.53;;;2.33;;
15645;SDS011;7922;43.622;1.476;2022-10-04T22:45:23;2.73;;;2.40;;
15645;SDS011;7922;43.622;1.476;2022-10-04T22:47:50;4.20;;;2.90;;
15645;SDS011;7922;43.622;1.476;2022-10-04T22:50:28;2.97;;;2.13;;
15645;SDS011;7922;43.622;1.476;2022-10-04T22:52:55;3.77;;;2.40;;
15645;SDS011;7922;43.622;1.476;2022-10-04T22:55:21;5.23;;;2.73;;
15645;SDS011;7922;43.622;1.476;2022-10-04T22:57:46;3.23;;;2.20;;
15645;SDS011;7922;43.622;1.476;2022-10-04T23:00:12;4.73;;;2.93;;
15645;SDS011;7922;43.622;1.476;2022-10-04T23:02:37;3.83;;;2.53;;
15645;SDS011;7922;43.622;1.476;2022-10-04T23:05:16;3.20;;;2.23;;
15645;SDS011;7922;43.622;1.476;2022-10-04T23:07:44;3.73;;;2.40;;
15645;SDS011;7922;43.622;1.476;2022-10-04T23:10:12;3.30;;;2.47;;
15645;SDS011;7922;43.622;1.476;2022-10-04T23:12:38;3.93;;;2.63;;
15645;SDS011;7922;43.622;1.476;2022-10-04T23:15:05;4.10;;;2.30;;
15645;SDS011;7922;43.622;1.476;2022-10-04T23:17:34;3.97;;;2.53;;
15645;SDS011;7922;43.622;1.476;2022-10-04T23:20:14;3.57;;;2.23;;
15645;SDS011;7922;43.622;1.476;2022-10-04T23:22:44;4.90;;;2.40;;
15645;SDS011;7922;43.622;1.476;2022-10-04T23:27:41;2.93;;;2.57;;
15645;SDS011;7922;43.622;1.476;2022-10-04T23:30:14;3.43;;;2.37;;
15645;SDS011;7922;43.622;1.476;2022-10-04T23:32:41;4.40;;;2.47;;
15645;SDS011;7922;43.622;1.476;2022-10-04T23:35:13;2.90;;;2.50;;
15645;SDS011;7922;43.622;1.476;2022-10-04T23:37:41;2.53;;;2.23;;
15645;SDS011;7922;43.622;1.476;2022-10-04T23:40:10;3.97;;;2.80;;
15645;SDS011;7922;43.622;1.476;2022-10-04T23:42:37;4.17;;;2.50;;
15645;SDS011;7922;43.622;1.476;2022-10-04T23:45:04;2.30;;;2.10;;
15645;SDS011;7922;43.622;1.476;2022-10-04T23:47:38;4.17;;;2.30;;
15645;SDS011;7922;43.622;1.476;2022-10-04T23:50:06;4.83;;;2.83;;
15645;SDS011;7922;43.622;1.476;2022-10-04T23:52:45;2.77;;;2.50;;
15645;SDS011;7922;43.622;1.476;2022-10-04T23:55:18;4.00;;;2.40;;
15645;SDS011;7922;43.622;1.476;2022-10-04T23:57:44;4.50;;;3.00;;
